Terminal Aerodrome Forecast
Issued by NWS Cleveland, OH

Home | Current Version | Previous Version | Graphics & Text | Print | Product List | Glossary Off
Versions: 1 2 3 4 5 6 7 8 9 10 11 12

500
FTUS41 KCLE 191120
TAFERI
TAF
KERI 191120Z 1912/2012 16003KT P6SM SCT045 BKN120
      TEMPO 1912/1916 BKN050
     FM191600 26009KT P6SM SCT050
     FM192200 26008KT P6SM SCT250
     FM200300 32004KT P6SM SCT250=

USA.gov is the U.S. government's official web portal to all federal, state and local government web resources and services.